Time;durP1;ratioP1;P1;durP2;ratioP2;P2;SDS_P1;SDS_P2;PMS_P1;PMS_P2;Temp;Humidity;BMP_temperature;BMP_pressure;BME280_temperature;BME280_humidity;BME280_pressure;Samples;Min_cycle;Max_cycle;Signal;HPM_P1;HPM_P2
2021/09/13 00:01:38;;;;;;;17.67;15.15;;;14.30;99.90;;;;;;5111401;28;20370;-81
2021/09/13 00:04:04;;;;;;;15.13;13.50;;;14.20;99.90;;;;;;5111317;28;20482;-79
2021/09/13 00:06:29;;;;;;;20.00;15.57;;;14.10;99.90;;;;;;5111183;28;20390;-81
2021/09/13 00:08:55;;;;;;;16.87;14.60;;;14.10;99.90;;;;;;5111215;28;20375;-82
2021/09/13 00:11:20;;;;;;;16.52;14.52;;;14.10;99.90;;;;;;5111114;28;20467;-80
2021/09/13 00:13:46;;;;;;;15.23;13.73;;;14.10;99.90;;;;;;5111086;28;20375;-79
2021/09/13 00:16:12;;;;;;;15.17;13.30;;;14.00;99.90;;;;;;5111136;28;20378;-81
2021/09/13 00:18:37;;;;;;;17.88;15.00;;;14.00;99.90;;;;;;5111063;28;20378;-79
2021/09/13 00:21:03;;;;;;;19.17;14.20;;;14.00;99.90;;;;;;5111092;28;20674;-81
2021/09/13 00:23:28;;;;;;;17.75;14.75;;;13.90;99.90;;;;;;5111088;28;20371;-83
2021/09/13 00:25:54;;;;;;;17.50;13.53;;;13.90;99.90;;;;;;5110912;28;20363;-84
2021/09/13 00:28:19;;;;;;;12.65;11.13;;;13.90;99.90;;;;;;5111023;28;20482;-81
2021/09/13 00:30:45;;;;;;;15.77;12.10;;;13.80;99.90;;;;;;5110919;28;20394;-81
2021/09/13 00:33:11;;;;;;;13.80;12.40;;;13.80;99.90;;;;;;5111000;28;20414;-83
2021/09/13 00:35:36;;;;;;;15.93;13.90;;;13.80;99.90;;;;;;5110761;28;20375;-82
2021/09/13 00:38:02;;;;;;;14.93;13.33;;;13.80;99.90;;;;;;5110703;28;20375;-82
2021/09/13 00:40:27;;;;;;;15.52;13.75;;;13.70;99.90;;;;;;5110705;28;20451;-81
2021/09/13 00:42:53;;;;;;;17.37;14.40;;;13.70;99.90;;;;;;5110805;28;20399;-81
2021/09/13 00:45:19;;;;;;;15.20;13.63;;;13.70;99.90;;;;;;5110498;28;20369;-83
2021/09/13 00:47:44;;;;;;;16.13;13.88;;;13.70;99.90;;;;;;5110466;28;20453;-81
2021/09/13 00:50:10;;;;;;;14.43;12.63;;;13.70;99.90;;;;;;5110768;28;20375;-82
2021/09/13 00:52:36;;;;;;;15.13;12.43;;;13.60;99.90;;;;;;5110829;28;20374;-81
2021/09/13 00:55:03;;;;;;;14.60;12.88;;;13.60;99.90;;;;;;5109351;28;20386;-79
2021/09/13 00:57:29;;;;;;;14.10;12.57;;;13.60;99.90;;;;;;5088695;28;20418;-81
2021/09/13 00:59:55;;;;;;;14.40;13.00;;;13.60;99.90;;;;;;5108727;28;20858;-83
2021/09/13 01:02:21;;;;;;;15.05;12.80;;;13.50;99.90;;;;;;5090418;28;20383;-81
2021/09/13 01:04:47;;;;;;;16.60;13.85;;;13.50;99.90;;;;;;5108570;28;20400;-79
2021/09/13 01:07:13;;;;;;;16.97;15.10;;;13.40;99.90;;;;;;5108508;28;20435;-82
2021/09/13 01:09:38;;;;;;;15.70;14.00;;;13.50;99.90;;;;;;5108351;28;20382;-81
2021/09/13 01:12:05;;;;;;;20.88;14.45;;;13.50;99.90;;;;;;5108544;28;20381;-81
2021/09/13 01:14:39;;;;;;;18.30;15.63;;;13.40;99.90;;;;;;5110256;28;21056;-79
2021/09/13 01:17:06;;;;;;;17.05;15.10;;;13.40;99.90;;;;;;5092280;28;20872;-80
2021/09/13 01:19:32;;;;;;;16.67;14.63;;;13.40;99.90;;;;;;5092092;28;20381;-80
2021/09/13 01:22:01;;;;;;;16.17;13.95;;;13.40;99.90;;;;;;5092269;28;20892;-82
2021/09/13 01:24:28;;;;;;;14.80;13.23;;;13.40;99.90;;;;;;5092016;28;20448;-82
2021/09/13 01:27:00;;;;;;;19.50;14.32;;;13.30;99.90;;;;;;5110270;28;20403;-80
2021/09/13 01:29:26;;;;;;;16.83;14.60;;;13.30;99.90;;;;;;5110331;28;20823;-79
2021/09/13 01:31:51;;;;;;;18.53;15.83;;;13.30;99.90;;;;;;5110427;28;20477;-83
2021/09/13 01:34:17;;;;;;;16.35;14.60;;;13.20;99.90;;;;;;5092036;28;20378;-80
2021/09/13 01:36:42;;;;;;;15.20;13.60;;;13.20;99.90;;;;;;5110104;28;20374;-83
2021/09/13 01:39:08;;;;;;;15.67;14.03;;;13.20;99.90;;;;;;5110206;28;20462;-79
2021/09/13 01:41:33;;;;;;;15.13;13.52;;;13.10;99.90;;;;;;5091878;28;20375;-79
2021/09/13 01:43:59;;;;;;;16.10;14.07;;;13.10;99.90;;;;;;5110419;28;20371;-82
2021/09/13 01:46:24;;;;;;;14.15;12.65;;;13.10;99.90;;;;;;5092018;28;20420;-82
2021/09/13 01:48:50;;;;;;;16.23;13.30;;;13.00;99.90;;;;;;5110108;28;20416;-81
2021/09/13 01:51:16;;;;;;;19.98;14.95;;;13.00;99.90;;;;;;5110055;28;20377;-78
2021/09/13 01:53:42;;;;;;;19.17;15.60;;;13.00;99.90;;;;;;5091804;28;20406;-79
2021/09/13 01:56:07;;;;;;;16.73;14.07;;;13.00;99.90;;;;;;5110433;28;20806;-80
2021/09/13 01:58:33;;;;;;;17.20;14.18;;;13.00;99.90;;;;;;5113802;28;20458;-81
2021/09/13 02:00:58;;;;;;;20.23;14.47;;;12.90;99.90;;;;;;5113724;28;20371;-80
2021/09/13 02:03:24;;;;;;;17.93;14.57;;;12.90;99.90;;;;;;5113719;28;20363;-81
2021/09/13 02:05:49;;;;;;;15.35;13.70;;;12.90;99.90;;;;;;5113644;28;20420;-82
2021/09/13 02:08:15;;;;;;;14.07;12.47;;;12.90;99.90;;;;;;5113487;28;20788;-80
2021/09/13 02:10:40;;;;;;;13.95;12.52;;;12.90;99.90;;;;;;5113654;28;20407;-80
2021/09/13 02:13:06;;;;;;;17.37;14.53;;;12.80;99.90;;;;;;5113527;28;20392;-82
2021/09/13 02:15:32;;;;;;;19.75;15.35;;;12.80;99.90;;;;;;5113223;28;20794;-81
2021/09/13 02:17:57;;;;;;;19.92;14.90;;;12.80;99.90;;;;;;5113379;28;20386;-81
2021/09/13 02:20:23;;;;;;;17.20;15.33;;;12.80;99.90;;;;;;5094944;28;20802;-80
2021/09/13 02:22:48;;;;;;;15.68;14.10;;;12.80;99.90;;;;;;5094858;28;20385;-82
2021/09/13 02:25:14;;;;;;;22.57;14.77;;;12.80;99.90;;;;;;5113310;28;20713;-82
2021/09/13 02:27:40;;;;;;;15.85;14.25;;;12.70;99.90;;;;;;5094850;28;20417;-81
2021/09/13 02:30:06;;;;;;;15.33;13.83;;;12.70;99.90;;;;;;5113324;28;20458;-82
2021/09/13 02:32:31;;;;;;;19.00;15.38;;;12.70;99.90;;;;;;5113171;28;20366;-80
2021/09/13 02:35:04;;;;;;;18.03;14.57;;;12.60;99.90;;;;;;5113101;28;20705;-81
2021/09/13 02:37:29;;;;;;;16.80;13.97;;;12.60;99.90;;;;;;5112945;28;20423;-82
2021/09/13 02:39:55;;;;;;;17.20;15.40;;;12.60;99.90;;;;;;5112993;28;20767;-82
2021/09/13 02:42:20;;;;;;;17.88;16.08;;;12.60;99.90;;;;;;5112902;28;20421;-80
2021/09/13 02:44:46;;;;;;;17.43;15.60;;;12.60;99.90;;;;;;5112889;28;20371;-80
2021/09/13 02:47:11;;;;;;;20.08;17.35;;;12.60;99.90;;;;;;5112619;28;20456;-82
2021/09/13 02:49:37;;;;;;;24.90;18.93;;;12.60;99.90;;;;;;5112757;28;20367;-82
2021/09/13 02:52:03;;;;;;;22.38;19.27;;;12.70;99.90;;;;;;5112836;28;20450;-79
2021/09/13 02:54:28;;;;;;;25.80;18.83;;;12.70;99.90;;;;;;5113211;28;20371;-82
2021/09/13 02:56:54;;;;;;;19.97;17.90;;;12.80;99.90;;;;;;5112708;28;20740;-80
2021/09/13 02:59:19;;;;;;;17.85;16.00;;;12.90;99.90;;;;;;5112647;28;20373;-80
2021/09/13 03:01:45;;;;;;;20.33;17.60;;;13.00;99.90;;;;;;5112667;28;20371;-81
2021/09/13 03:04:10;;;;;;;22.70;20.30;;;13.10;99.90;;;;;;5112480;28;20367;-82
2021/09/13 03:06:36;;;;;;;21.43;19.23;;;13.10;99.90;;;;;;5112585;28;20379;-80
2021/09/13 03:09:02;;;;;;;19.73;17.15;;;13.20;99.90;;;;;;5112420;28;20968;-80
2021/09/13 03:11:27;;;;;;;18.50;16.60;;;13.30;99.90;;;;;;5112344;28;20371;-82
2021/09/13 03:13:54;;;;;;;18.93;16.70;;;13.30;99.90;;;;;;5093989;28;20805;-79
2021/09/13 03:16:19;;;;;;;16.67;14.98;;;13.40;99.90;;;;;;5112206;28;20796;-82
2021/09/13 03:18:45;;;;;;;17.30;15.50;;;13.40;99.90;;;;;;5112118;28;20394;-81
2021/09/13 03:21:10;;;;;;;20.20;16.52;;;13.30;99.90;;;;;;5112104;28;20779;-80
2021/09/13 03:23:36;;;;;;;17.00;15.20;;;13.40;99.90;;;;;;5112032;28;20363;-79
2021/09/13 03:26:02;;;;;;;18.08;16.13;;;13.40;99.90;;;;;;5111975;28;20374;-81
2021/09/13 03:28:27;;;;;;;19.38;17.27;;;13.50;99.90;;;;;;5111992;28;20402;-83
2021/09/13 03:30:53;;;;;;;19.70;17.63;;;13.50;99.90;;;;;;5112028;28;20363;-83
2021/09/13 03:33:19;;;;;;;19.35;17.17;;;13.50;99.90;;;;;;5112123;28;20371;-80
2021/09/13 03:35:44;;;;;;;20.17;17.30;;;13.60;99.90;;;;;;5111876;28;20382;-80
2021/09/13 03:38:10;;;;;;;18.10;16.30;;;13.60;99.90;;;;;;5111827;28;20370;-81
2021/09/13 03:40:35;;;;;;;21.20;18.50;;;13.50;99.90;;;;;;5111793;28;20386;-82
2021/09/13 03:43:01;;;;;;;20.60;17.40;;;13.40;99.90;;;;;;5093646;28;20838;-81
2021/09/13 03:45:27;;;;;;;22.48;17.42;;;13.40;99.90;;;;;;5111568;28;20706;-82
2021/09/13 03:47:52;;;;;;;18.80;16.77;;;13.30;99.90;;;;;;5111316;28;20410;-83
2021/09/13 03:50:18;;;;;;;19.10;17.10;;;13.30;99.90;;;;;;5111431;28;20895;-81
2021/09/13 03:52:43;;;;;;;22.83;19.10;;;13.20;99.90;;;;;;5111600;28;20741;-82
2021/09/13 03:55:09;;;;;;;21.73;19.17;;;13.10;99.90;;;;;;5111540;28;20462;-81
2021/09/13 03:57:35;;;;;;;20.73;18.52;;;13.10;99.90;;;;;;5111394;28;20428;-82
2021/09/13 04:00:00;;;;;;;25.60;19.77;;;13.00;99.90;;;;;;5111324;28;20371;-81
2021/09/13 04:02:27;;;;;;;21.83;19.13;;;13.00;99.90;;;;;;5111395;28;20868;-80
2021/09/13 04:04:52;;;;;;;19.95;17.95;;;13.00;99.90;;;;;;5111271;28;20375;-82
2021/09/13 04:07:21;;;;;;;22.97;18.67;;;12.90;99.90;;;;;;5111249;28;20428;-81
2021/09/13 04:09:51;;;;;;;23.95;19.02;;;12.90;99.90;;;;;;5093169;28;20962;-80
2021/09/13 04:12:17;;;;;;;20.98;18.77;;;12.80;99.90;;;;;;5092989;28;20490;-80
2021/09/13 04:14:43;;;;;;;22.83;19.67;;;12.80;99.90;;;;;;5111207;28;20932;-82
2021/09/13 04:17:08;;;;;;;25.70;21.03;;;12.80;99.90;;;;;;5111066;28;20440;-82
2021/09/13 04:19:35;;;;;;;26.95;21.63;;;12.70;99.90;;;;;;5110849;28;20709;-80
2021/09/13 04:22:01;;;;;;;21.60;19.27;;;12.60;99.90;;;;;;5111235;28;20383;-80
2021/09/13 04:24:27;;;;;;;20.95;18.75;;;12.60;99.90;;;;;;5111210;28;20371;-83
2021/09/13 04:26:52;;;;;;;19.50;17.33;;;12.60;99.90;;;;;;5111022;28;20398;-80
2021/09/13 04:29:18;;;;;;;21.58;19.20;;;12.50;99.90;;;;;;5092735;28;20419;-80
2021/09/13 04:31:44;;;;;;;22.03;19.30;;;12.50;99.90;;;;;;5110788;28;20382;-80
2021/09/13 04:34:10;;;;;;;20.73;18.55;;;12.40;99.90;;;;;;5111032;28;20359;-81
2021/09/13 04:36:39;;;;;;;22.27;19.15;;;12.50;99.90;;;;;;5092684;28;20374;-82
2021/09/13 04:39:05;;;;;;;21.50;19.15;;;12.40;99.90;;;;;;5111053;28;20371;-81
2021/09/13 04:41:31;;;;;;;20.30;18.17;;;12.40;99.90;;;;;;5110791;28;20725;-79
2021/09/13 04:43:56;;;;;;;22.63;19.60;;;12.40;99.90;;;;;;5110767;28;20465;-79
2021/09/13 04:46:22;;;;;;;26.23;20.63;;;12.40;99.90;;;;;;5110879;28;20375;-81
2021/09/13 04:48:47;;;;;;;22.73;20.25;;;12.30;99.90;;;;;;5110621;28;20387;-83
2021/09/13 04:51:13;;;;;;;21.97;19.60;;;12.30;99.90;;;;;;5111005;28;20371;-80
2021/09/13 04:53:38;;;;;;;24.48;20.73;;;12.30;99.90;;;;;;5110708;28;20413;-82
2021/09/13 04:56:04;;;;;;;20.97;18.60;;;12.30;99.90;;;;;;5110722;28;20389;-82
2021/09/13 04:58:30;;;;;;;20.80;18.70;;;12.30;99.90;;;;;;5110616;28;20378;-82
2021/09/13 05:00:56;;;;;;;20.30;18.10;;;12.30;99.90;;;;;;5092366;28;20537;-82
2021/09/13 05:03:22;;;;;;;18.75;16.90;;;12.40;99.90;;;;;;5110552;28;20371;-81
2021/09/13 05:05:47;;;;;;;19.25;16.58;;;12.40;99.90;;;;;;5110466;28;20374;-80
2021/09/13 05:08:13;;;;;;;19.40;17.40;;;12.30;99.90;;;;;;5110491;28;20398;-81
2021/09/13 05:10:39;;;;;;;20.17;18.10;;;12.40;99.90;;;;;;5110442;28;20469;-80
2021/09/13 05:13:05;;;;;;;19.63;16.38;;;12.40;99.90;;;;;;5110662;28;20389;-79
2021/09/13 05:15:31;;;;;;;22.43;18.73;;;12.40;99.90;;;;;;5092096;28;20827;-80
2021/09/13 05:17:57;;;;;;;19.88;17.45;;;12.40;99.90;;;;;;5110596;28;20371;-80
2021/09/13 05:20:22;;;;;;;23.50;18.15;;;12.50;99.90;;;;;;5110368;28;20408;-83
2021/09/13 05:22:48;;;;;;;18.47;16.47;;;12.50;99.90;;;;;;5110143;28;20887;-83
2021/09/13 05:25:13;;;;;;;20.70;17.85;;;12.60;99.90;;;;;;5092130;28;20375;-84
2021/09/13 05:27:39;;;;;;;20.52;17.48;;;12.50;99.90;;;;;;5110197;28;20397;-81
2021/09/13 05:30:05;;;;;;;21.97;17.97;;;12.60;99.90;;;;;;5110325;28;20402;-81
2021/09/13 05:32:31;;;;;;;22.15;18.75;;;12.60;99.90;;;;;;5112918;28;20371;-81
2021/09/13 05:34:56;;;;;;;21.08;18.42;;;12.50;99.90;;;;;;5114301;28;20470;-82
2021/09/13 05:37:22;;;;;;;19.45;17.25;;;12.70;99.90;;;;;;5114077;28;20378;-82
2021/09/13 05:39:48;;;;;;;23.43;18.30;;;12.80;99.90;;;;;;5095764;28;20371;-82
2021/09/13 05:42:13;;;;;;;18.38;16.38;;;12.90;99.90;;;;;;5095776;28;20371;-83
2021/09/13 05:44:40;;;;;;;21.48;17.63;;;13.10;99.90;;;;;;5113622;28;20910;-83
2021/09/13 05:47:05;;;;;;;18.52;16.60;;;13.20;99.90;;;;;;5095457;28;20399;-81
2021/09/13 05:49:31;;;;;;;19.10;17.17;;;13.30;99.90;;;;;;5114084;28;20398;-81
2021/09/13 05:51:57;;;;;;;20.80;16.53;;;13.40;99.90;;;;;;5113897;28;20760;-82
2021/09/13 05:54:25;;;;;;;19.20;16.63;;;13.50;99.90;;;;;;5113864;28;20382;-84
2021/09/13 05:56:52;;;;;;;18.00;16.20;;;13.50;99.90;;;;;;5095521;28;20386;-80
2021/09/13 05:59:22;;;;;;;20.23;17.27;;;13.70;99.90;;;;;;5095331;28;20856;-83
2021/09/13 06:01:49;;;;;;;18.88;16.83;;;13.80;99.90;;;;;;5090742;28;20392;-79
2021/09/13 06:04:15;;;;;;;18.95;16.45;;;13.90;99.90;;;;;;5095071;28;20740;-82
2021/09/13 06:06:41;;;;;;;18.50;16.60;;;14.00;99.90;;;;;;5095367;28;20397;-82
2021/09/13 06:09:08;;;;;;;19.23;17.05;;;14.10;99.90;;;;;;5114492;28;20382;-82
2021/09/13 06:11:34;;;;;;;18.52;16.58;;;14.20;99.90;;;;;;5115000;28;20440;-82
2021/09/13 06:13:59;;;;;;;17.58;15.73;;;14.40;99.90;;;;;;5096574;28;20370;-82
2021/09/13 06:16:25;;;;;;;17.97;15.93;;;14.60;99.90;;;;;;5114860;28;20947;-82
2021/09/13 06:18:51;;;;;;;14.93;13.45;;;14.70;99.90;;;;;;5096044;28;20425;-79
2021/09/13 06:21:18;;;;;;;15.23;13.35;;;15.00;99.90;;;;;;5113814;28;20379;-81
2021/09/13 06:23:44;;;;;;;14.18;12.02;;;15.20;99.90;;;;;;5113270;28;20375;-83
2021/09/13 06:26:11;;;;;;;12.52;11.32;;;15.30;99.90;;;;;;5113477;28;20768;-80
2021/09/13 06:28:37;;;;;;;11.53;10.23;;;15.50;99.90;;;;;;5113056;28;20412;-83
2021/09/13 06:31:02;;;;;;;13.10;11.67;;;15.60;99.90;;;;;;5113236;28;20474;-80
2021/09/13 06:33:29;;;;;;;11.35;10.27;;;15.60;99.90;;;;;;5113177;28;20822;-83
2021/09/13 06:35:54;;;;;;;14.50;10.97;;;15.80;99.90;;;;;;5110711;27;20383;-80
2021/09/13 06:38:20;;;;;;;13.50;10.40;;;15.90;99.90;;;;;;5130896;27;20431;-81
2021/09/13 06:40:46;;;;;;;12.60;10.27;;;16.00;99.90;;;;;;5128939;27;20999;-81
2021/09/13 06:43:14;;;;;;;16.00;10.60;;;16.20;99.90;;;;;;5132223;27;20777;-82
2021/09/13 06:45:41;;;;;;;11.38;9.88;;;16.30;99.90;;;;;;5114355;27;20425;-81
2021/09/13 06:48:14;;;;;;;12.20;9.70;;;16.50;99.90;;;;;;5115071;27;20405;-81
2021/09/13 06:50:42;;;;;;;10.68;9.55;;;16.60;99.90;;;;;;5115858;27;20399;-82
2021/09/13 06:53:10;;;;;;;11.40;9.57;;;16.80;99.90;;;;;;5128147;27;20378;-80
2021/09/13 06:55:39;;;;;;;12.40;10.53;;;17.00;99.90;;;;;;5096909;28;20391;-80
2021/09/13 06:58:06;;;;;;;13.15;10.23;;;17.10;99.90;;;;;;5116428;28;20372;-80
2021/09/13 07:00:34;;;;;;;12.02;10.75;;;17.20;99.90;;;;;;5114413;27;20857;-81
2021/09/13 07:03:00;;;;;;;13.35;10.90;;;17.20;99.90;;;;;;5098291;28;20389;-80
2021/09/13 07:05:26;;;;;;;12.43;10.60;;;17.30;99.90;;;;;;5111338;27;20390;-81
2021/09/13 07:07:53;;;;;;;14.55;10.55;;;17.50;99.90;;;;;;5106566;27;20463;-80
2021/09/13 07:10:19;;;;;;;12.18;10.32;;;17.70;99.90;;;;;;5106788;28;20415;-82
2021/09/13 07:12:47;;;;;;;10.43;9.35;;;17.70;99.90;;;;;;5104375;28;20391;-81
2021/09/13 07:15:15;;;;;;;12.25;9.75;;;17.90;99.90;;;;;;5074553;28;20393;-80
2021/09/13 07:17:42;;;;;;;10.70;8.68;;;17.90;99.90;;;;;;5112818;27;20427;-80
2021/09/13 07:20:08;;;;;;;9.38;8.45;;;18.00;99.90;;;;;;5102391;28;20720;-82
2021/09/13 07:22:34;;;;;;;10.35;8.77;;;18.20;99.90;;;;;;5106409;28;20374;-80
2021/09/13 07:24:59;;;;;;;11.88;8.02;;;18.40;99.90;;;;;;5101796;28;20434;-79
2021/09/13 07:27:25;;;;;;;8.90;7.18;;;18.50;99.90;;;;;;5103777;28;20411;-81
2021/09/13 07:29:51;;;;;;;9.37;7.27;;;18.60;99.90;;;;;;5090419;28;20386;-81
2021/09/13 07:32:18;;;;;;;8.87;7.07;;;18.70;99.90;;;;;;5092368;28;20372;-80
2021/09/13 07:34:44;;;;;;;6.53;5.90;;;18.80;99.90;;;;;;5083445;28;20475;-80
2021/09/13 07:37:09;;;;;;;7.97;6.63;;;18.90;99.90;;;;;;5090762;28;20452;-81
2021/09/13 07:39:35;;;;;;;10.80;6.75;;;18.80;99.90;;;;;;5091958;28;20897;-80
2021/09/13 07:42:00;;;;;;;8.60;6.53;;;18.60;99.90;;;;;;5102668;28;20779;-81
2021/09/13 07:44:26;;;;;;;9.57;6.60;;;18.60;99.90;;;;;;5088392;28;20406;-80
2021/09/13 07:46:52;;;;;;;9.83;6.73;;;18.70;99.90;;;;;;5106535;28;20402;-82
2021/09/13 07:49:20;;;;;;;8.38;7.28;;;18.80;99.90;;;;;;5090352;28;20411;-82
2021/09/13 07:51:47;;;;;;;10.05;7.63;;;18.70;99.90;;;;;;5092122;28;20388;-83
2021/09/13 07:54:13;;;;;;;9.93;7.35;;;18.60;99.90;;;;;;5093756;28;20413;-82
2021/09/13 07:56:39;;;;;;;10.83;7.83;;;18.80;99.90;;;;;;5102570;28;20406;-83
2021/09/13 07:59:05;;;;;;;10.15;7.97;;;18.90;99.90;;;;;;5102619;27;20372;-80
2021/09/13 08:01:31;;;;;;;10.15;7.72;;;19.20;99.90;;;;;;5073175;28;20385;-82
2021/09/13 08:03:58;;;;;;;10.10;8.13;;;19.50;99.90;;;;;;5106746;28;20393;-80
2021/09/13 08:06:24;;;;;;;11.23;8.05;;;19.60;99.90;;;;;;5103772;28;20473;-82
2021/09/13 08:08:49;;;;;;;8.87;7.17;;;19.60;99.90;;;;;;5096829;28;20480;-80
2021/09/13 08:11:16;;;;;;;11.48;7.93;;;19.60;99.90;;;;;;5089787;28;20395;-80
2021/09/13 08:13:42;;;;;;;10.38;7.75;;;19.60;99.90;;;;;;5101409;28;20381;-82
2021/09/13 08:16:09;;;;;;;10.18;8.40;;;19.60;99.90;;;;;;5108708;28;20383;-80
2021/09/13 08:18:37;;;;;;;8.10;7.18;;;19.70;99.90;;;;;;5096293;28;21056;-80
2021/09/13 08:21:03;;;;;;;10.88;7.30;;;19.80;99.90;;;;;;5086445;28;20754;-81
2021/09/13 08:23:33;;;;;;;8.60;7.20;;;20.10;99.90;;;;;;5102585;28;20461;-79
2021/09/13 08:25:59;;;;;;;8.02;6.60;;;20.30;99.90;;;;;;5074065;28;20381;-81
2021/09/13 08:28:25;;;;;;;7.70;6.50;;;20.40;99.90;;;;;;5094655;28;20494;-82
2021/09/13 08:30:50;;;;;;;8.70;6.95;;;20.40;99.90;;;;;;5097292;28;20497;-81
2021/09/13 08:33:17;;;;;;;10.43;7.27;;;20.40;99.90;;;;;;5109201;28;20403;-80
2021/09/13 08:35:43;;;;;;;8.02;7.25;;;20.50;99.90;;;;;;5073068;28;20384;-79
2021/09/13 08:38:11;;;;;;;8.07;6.53;;;20.60;99.90;;;;;;5102682;28;20378;-82
2021/09/13 08:40:37;;;;;;;9.93;6.15;;;20.60;99.90;;;;;;5092589;28;20783;-81
2021/09/13 08:43:04;;;;;;;11.25;6.90;;;20.50;99.90;;;;;;5110511;28;20362;-81
2021/09/13 08:45:38;;;;;;;8.85;6.10;;;20.30;99.90;;;;;;5109329;28;20457;-82
2021/09/13 08:48:17;;;;;;;8.82;6.50;;;20.40;99.90;;;;;;5092139;28;20407;-82
2021/09/13 08:51:04;;;;;;;8.38;6.22;;;20.40;99.90;;;;;;5110743;28;20421;-81
2021/09/13 08:53:34;;;;;;;9.85;6.50;;;20.30;99.90;;;;;;5110044;28;20948;-83
2021/09/13 08:56:02;;;;;;;10.15;6.00;;;20.30;99.90;;;;;;5111108;28;20383;-84
2021/09/13 08:58:32;;;;;;;9.27;6.55;;;20.40;99.90;;;;;;5110600;28;20374;-83
2021/09/13 09:01:00;;;;;;;9.75;6.13;;;20.40;99.90;;;;;;5092455;28;20893;-83
2021/09/13 09:03:27;;;;;;;9.02;6.72;;;20.40;99.90;;;;;;5111996;28;20374;-81
2021/09/13 09:05:53;;;;;;;8.40;6.35;;;20.30;99.90;;;;;;5112607;28;20951;-82
2021/09/13 09:08:27;;;;;;;8.00;6.47;;;20.40;99.90;;;;;;5095962;28;20408;-79
2021/09/13 09:10:56;;;;;;;6.15;5.40;;;20.20;99.90;;;;;;5114250;28;21118;-82
2021/09/13 09:13:22;;;;;;;5.90;5.30;;;20.10;99.90;;;;;;5114872;28;20457;-80
2021/09/13 09:16:02;;;;;;;9.48;5.75;;;20.00;99.90;;;;;;5114947;28;20407;-82
2021/09/13 09:18:43;;;;;;;6.50;5.20;;;20.10;99.90;;;;;;5097258;28;20382;-81
2021/09/13 09:21:11;;;;;;;5.50;3.90;;;20.20;99.90;;;;;;5096875;28;20418;-83
2021/09/13 09:23:59;;;;;;;5.93;4.05;;;20.30;99.90;;;;;;5116914;28;20433;-82
2021/09/13 09:26:26;;;;;;;6.53;4.72;;;20.30;99.90;;;;;;5096890;28;20518;-83
2021/09/13 09:28:55;;;;;;;6.15;4.60;;;20.40;99.90;;;;;;5097252;28;20391;-81
2021/09/13 09:31:54;;;;;;;7.50;5.32;;;20.60;99.90;;;;;;5096737;28;20418;-82
2021/09/13 09:34:21;;;;;;;5.75;4.50;;;20.70;99.90;;;;;;5057856;28;20887;-81
2021/09/13 09:36:59;;;;;;;8.13;5.00;;;20.90;99.90;;;;;;5113897;28;20408;-81
2021/09/13 09:39:30;;;;;;;7.97;4.50;;;21.10;99.90;;;;;;5111207;28;20387;-82
2021/09/13 09:41:57;;;;;;;5.90;4.65;;;21.20;99.90;;;;;;5112648;28;20379;-83
2021/09/13 09:44:24;;;;;;;6.97;4.40;;;21.20;99.90;;;;;;5094772;28;20394;-80
2021/09/13 09:46:52;;;;;;;6.90;4.60;;;21.10;99.90;;;;;;5110828;28;20402;-79
2021/09/13 09:49:20;;;;;;;5.95;4.93;;;21.00;99.90;;;;;;5110591;28;20414;-80
2021/09/13 09:51:54;;;;;;;8.10;4.93;;;21.10;99.90;;;;;;5115008;28;20386;-81
2021/09/13 09:54:26;;;;;;;6.80;4.90;;;21.30;99.90;;;;;;5111751;28;20441;-79
2021/09/13 09:57:09;;;;;;;7.88;5.13;;;21.60;99.90;;;;;;5095758;28;20379;-81
2021/09/13 09:59:37;;;;;;;7.57;4.43;;;21.70;99.90;;;;;;5114233;28;20378;-79
2021/09/13 10:02:17;;;;;;;8.63;5.33;;;21.70;99.90;;;;;;5111132;28;20374;-79
2021/09/13 10:04:46;;;;;;;6.97;5.13;;;21.50;99.90;;;;;;5112507;28;20363;-80
2021/09/13 10:07:14;;;;;;;6.93;4.97;;;21.30;99.90;;;;;;5076028;28;20890;-80
2021/09/13 10:09:41;;;;;;;6.93;4.88;;;20.90;99.90;;;;;;5096592;28;20412;-83
2021/09/13 10:12:08;;;;;;;6.45;5.00;;;20.70;99.90;;;;;;5114222;28;20394;-83
2021/09/13 10:14:34;;;;;;;5.72;5.13;;;20.70;99.90;;;;;;5094319;28;20445;-81
2021/09/13 10:17:00;;;;;;;7.03;4.72;;;20.60;99.90;;;;;;5111730;28;20868;-82
2021/09/13 10:19:28;;;;;;;5.55;4.90;;;20.50;99.90;;;;;;5111550;28;20386;-80
2021/09/13 10:21:55;;;;;;;6.82;5.38;;;20.40;99.90;;;;;;5092004;28;20425;-80
2021/09/13 10:24:24;;;;;;;7.28;4.80;;;20.60;99.90;;;;;;5113686;28;20378;-81
2021/09/13 10:26:54;;;;;;;6.00;4.90;;;20.90;99.90;;;;;;5115107;28;20888;-81
2021/09/13 10:29:26;;;;;;;6.07;4.40;;;21.10;99.90;;;;;;5111485;28;20375;-82
2021/09/13 10:31:51;;;;;;;7.38;4.68;;;21.40;99.90;;;;;;5094223;28;20379;-81
2021/09/13 10:34:22;;;;;;;5.43;4.23;;;21.50;99.90;;;;;;5110076;28;20400;-82
2021/09/13 10:37:15;;;;;;;6.57;4.47;;;21.40;99.90;;;;;;5110862;28;20865;-81
2021/09/13 10:40:00;;;;;;;4.60;3.90;;;21.50;99.90;;;;;;5106224;28;20741;-80
2021/09/13 10:42:29;;;;;;;5.15;4.65;;;21.50;99.90;;;;;;5110123;28;20385;-83
2021/09/13 10:45:10;;;;;;;4.95;4.13;;;21.50;99.90;;;;;;5111658;28;20375;-81
2021/09/13 10:47:37;;;;;;;5.75;4.60;;;21.50;99.90;;;;;;5111523;28;20402;-80
2021/09/13 10:50:33;;;;;;;6.05;4.47;;;21.10;99.90;;;;;;5112960;28;20588;-81
2021/09/13 10:53:00;;;;;;;5.60;4.55;;;21.10;99.90;;;;;;5094213;28;20410;-83
2021/09/13 10:55:43;;;;;;;5.85;4.35;;;21.20;99.90;;;;;;5093292;28;20417;-84
2021/09/13 10:58:12;;;;;;;5.45;4.47;;;21.40;99.90;;;;;;5093414;28;20444;-82
2021/09/13 11:00:38;;;;;;;5.20;4.30;;;21.50;99.90;;;;;;5112338;28;20464;-82
2021/09/13 11:03:22;;;;;;;5.43;4.17;;;21.80;99.90;;;;;;5112366;28;20382;-79
2021/09/13 11:06:16;;;;;;;9.30;4.60;;;22.10;99.90;;;;;;5110622;28;20509;-80
2021/09/13 11:08:45;;;;;;;5.20;4.10;;;22.40;99.90;;;;;;5110662;28;20421;-80
2021/09/13 11:11:13;;;;;;;6.47;4.07;;;22.30;99.90;;;;;;5091081;28;20421;-80
2021/09/13 11:13:40;;;;;;;5.88;3.72;;;22.30;99.90;;;;;;5109079;27;20414;-82
2021/09/13 11:16:06;;;;;;;6.38;4.30;;;22.40;99.90;;;;;;5112666;28;20421;-81
2021/09/13 11:18:42;;;;;;;4.07;3.67;;;22.40;99.90;;;;;;5111795;28;20374;-83
2021/09/13 11:21:20;;;;;;;4.50;3.72;;;22.30;99.90;;;;;;5111583;28;20383;-82
2021/09/13 11:24:06;;;;;;;5.88;3.63;;;22.30;99.90;;;;;;5103473;27;20382;-80
2021/09/13 11:26:40;;;;;;;4.68;3.30;;;22.10;99.90;;;;;;5091460;28;20611;-81
2021/09/13 11:29:17;;;;;;;7.03;3.67;;;22.10;99.90;;;;;;5108947;28;20378;-80
2021/09/13 11:31:44;;;;;;;4.05;3.17;;;21.70;99.90;;;;;;5106801;28;20859;-83
2021/09/13 11:34:16;;;;;;;6.77;3.70;;;21.50;99.90;;;;;;5109772;28;20362;-81
2021/09/13 11:37:01;;;;;;;6.00;3.60;;;21.30;99.90;;;;;;5093606;28;20477;-80
2021/09/13 11:39:47;;;;;;;5.78;3.60;;;21.00;99.90;;;;;;5093325;28;20386;-81
2021/09/13 11:42:19;;;;;;;4.57;3.67;;;20.90;99.90;;;;;;5093508;28;20386;-83
2021/09/13 11:44:50;;;;;;;6.05;3.50;;;20.60;99.90;;;;;;5111358;28;20394;-79
2021/09/13 11:47:18;;;;;;;7.50;3.45;;;20.50;99.90;;;;;;5110584;28;20454;-80
2021/09/13 11:49:47;;;;;;;5.60;3.30;;;20.40;99.90;;;;;;5091639;28;20423;-81
2021/09/13 11:52:28;;;;;;;4.75;3.13;;;20.40;99.90;;;;;;5106968;28;20378;-81
2021/09/13 11:54:54;;;;;;;5.10;3.20;;;20.30;99.90;;;;;;5110230;28;20382;-83
2021/09/13 11:57:23;;;;;;;4.10;3.08;;;20.30;99.90;;;;;;5106470;28;20378;-80
2021/09/13 11:59:54;;;;;;;5.07;3.33;;;20.20;99.90;;;;;;5110148;28;20374;-82
2021/09/13 12:02:20;;;;;;;4.80;3.10;;;19.80;99.90;;;;;;5091791;28;20478;-84
2021/09/13 12:04:47;;;;;;;3.92;3.00;;;19.40;99.90;;;;;;5107698;28;20412;-83
2021/09/13 12:07:13;;;;;;;3.42;3.08;;;19.20;99.90;;;;;;5103008;28;20409;-81
2021/09/13 12:09:44;;;;;;;5.57;2.85;;;19.30;99.90;;;;;;5101011;28;20389;-80
2021/09/13 12:12:24;;;;;;;3.95;2.67;;;19.40;99.90;;;;;;5110566;28;20788;-80
2021/09/13 12:14:54;;;;;;;3.90;2.45;;;19.30;99.90;;;;;;5111279;28;20373;-80
2021/09/13 12:17:22;;;;;;;7.15;2.85;;;19.50;99.90;;;;;;5110964;28;20370;-80
2021/09/13 12:20:00;;;;;;;4.15;2.60;;;19.60;99.90;;;;;;5111681;28;20435;-82
2021/09/13 12:22:34;;;;;;;4.75;3.15;;;19.80;99.90;;;;;;5109378;28;20386;-82
2021/09/13 12:25:12;;;;;;;4.55;2.72;;;19.90;99.90;;;;;;5092100;28;20436;-82
2021/09/13 12:27:45;;;;;;;4.57;3.10;;;20.20;99.90;;;;;;5106786;28;20748;-82
2021/09/13 12:30:16;;;;;;;3.60;2.53;;;20.50;99.90;;;;;;5114516;27;20451;-81
2021/09/13 12:32:52;;;;;;;5.15;3.13;;;20.70;99.90;;;;;;5100848;28;20482;-82
2021/09/13 12:35:30;;;;;;;7.57;3.10;;;20.80;99.90;;;;;;5120383;27;20377;-81
2021/09/13 12:37:56;;;;;;;4.82;2.88;;;20.70;99.90;;;;;;5123808;27;20447;-81
2021/09/13 12:40:21;;;;;;;4.22;2.70;;;20.70;99.90;;;;;;5113748;28;20366;-82